createdAt,value
2018-07-19T00:01:04.829Z,61.60
2018-07-19T00:03:33.253Z,59.70
2018-07-19T00:06:01.766Z,60.20
2018-07-19T00:08:30.238Z,60.80
2018-07-19T00:10:58.748Z,60.60
2018-07-19T00:13:27.160Z,60.40
2018-07-19T00:15:55.573Z,60.40
2018-07-19T00:18:26.419Z,60.90
2018-07-19T00:20:56.088Z,61.10
2018-07-19T00:23:25.008Z,60.60
2018-07-19T00:25:54.222Z,61.60
2018-07-19T00:28:23.020Z,61.70
2018-07-19T00:30:51.428Z,61.80
2018-07-19T00:33:20.045Z,61.60
2018-07-19T00:35:48.518Z,61.70
2018-07-19T00:38:16.960Z,62.00
2018-07-19T00:40:45.349Z,61.60
2018-07-19T00:43:13.825Z,61.70
2018-07-19T00:45:42.245Z,62.40
2018-07-19T00:48:10.713Z,63.20
2018-07-19T00:50:39.109Z,63.20
2018-07-19T00:53:07.578Z,63.50
2018-07-19T00:55:36.068Z,63.60
2018-07-19T00:58:04.515Z,64.00
2018-07-19T01:00:33.081Z,64.20
2018-07-19T01:03:01.557Z,64.50
2018-07-19T01:05:30.053Z,64.70
2018-07-19T01:07:58.493Z,64.50
2018-07-19T01:12:55.568Z,65.30
2018-07-19T01:15:30.629Z,65.40
2018-07-19T01:17:59.049Z,65.10
2018-07-19T01:20:27.427Z,65.00
2018-07-19T01:22:55.859Z,65.00
2018-07-19T01:25:24.250Z,65.70
2018-07-19T01:27:52.749Z,65.90
2018-07-19T01:30:21.140Z,66.70
2018-07-19T01:32:49.567Z,66.80
2018-07-19T01:35:17.990Z,66.70
2018-07-19T01:37:46.450Z,66.20
2018-07-19T01:40:14.873Z,66.70
2018-07-19T01:42:44.470Z,66.90
2018-07-19T01:45:13.510Z,67.20
2018-07-19T01:47:42.238Z,67.20
2018-07-19T01:50:11.301Z,67.10
2018-07-19T01:52:39.801Z,67.50
2018-07-19T01:55:08.697Z,67.60
2018-07-19T01:57:37.159Z,67.20
2018-07-19T02:00:05.986Z,68.00
2018-07-19T02:02:34.440Z,67.20
2018-07-19T02:05:02.911Z,68.30
2018-07-19T02:07:31.296Z,67.80
2018-07-19T02:09:59.777Z,69.00
2018-07-19T02:12:28.317Z,68.40
2018-07-19T02:14:56.747Z,68.40
2018-07-19T02:17:25.149Z,68.40
2018-07-19T02:19:53.597Z,68.30
2018-07-19T02:22:21.996Z,68.30
2018-07-19T02:24:50.448Z,68.90
2018-07-19T02:27:18.821Z,69.20
2018-07-19T02:29:47.396Z,69.70
2018-07-19T02:32:15.816Z,69.90
2018-07-19T02:34:44.230Z,70.00
2018-07-19T02:37:13.329Z,69.80
2018-07-19T02:39:41.770Z,69.60
2018-07-19T02:42:10.241Z,69.50
2018-07-19T02:44:38.645Z,69.70
2018-07-19T02:47:07.012Z,69.90
2018-07-19T02:49:35.489Z,69.60
2018-07-19T02:52:03.980Z,70.80
2018-07-19T02:54:32.406Z,71.60
2018-07-19T02:57:00.786Z,72.10
2018-07-19T02:59:29.195Z,71.60
2018-07-19T03:01:57.602Z,71.00
2018-07-19T03:04:26.060Z,71.30
2018-07-19T03:06:54.496Z,71.50
2018-07-19T03:09:22.921Z,71.80
2018-07-19T03:11:51.329Z,72.00
2018-07-19T03:14:19.885Z,72.20
2018-07-19T03:16:48.310Z,72.60
2018-07-19T03:19:16.747Z,72.80
2018-07-19T03:21:45.182Z,73.30
2018-07-19T03:24:13.750Z,73.30
2018-07-19T03:26:42.221Z,73.60
2018-07-19T03:29:10.634Z,73.60
2018-07-19T03:31:39.017Z,73.20
2018-07-19T03:34:07.431Z,73.20
2018-07-19T03:36:35.866Z,73.40
2018-07-19T03:39:05.960Z,73.30
2018-07-19T03:41:34.323Z,73.40
2018-07-19T03:44:02.725Z,74.20
2018-07-19T03:46:31.178Z,74.80
2018-07-19T03:48:59.645Z,74.50
2018-07-19T03:51:28.093Z,74.70
2018-07-19T03:53:56.524Z,74.50
2018-07-19T03:56:24.942Z,74.40
2018-07-19T03:58:53.372Z,74.40
2018-07-19T04:01:21.780Z,74.50
2018-07-19T04:03:50.190Z,74.40
2018-07-19T04:06:18.669Z,75.00
2018-07-19T04:08:47.021Z,75.00
2018-07-19T04:11:15.485Z,75.10
2018-07-19T04:13:44.029Z,75.30
2018-07-19T04:16:12.430Z,75.60
2018-07-19T04:18:40.832Z,75.10
2018-07-19T04:21:09.297Z,75.70
2018-07-19T04:23:37.694Z,75.50
2018-07-19T04:26:06.111Z,75.10
2018-07-19T04:28:34.538Z,75.00
2018-07-19T04:31:02.982Z,75.20
2018-07-19T04:33:32.213Z,75.30
2018-07-19T04:36:00.647Z,75.30
2018-07-19T04:38:29.027Z,75.30
2018-07-19T04:40:58.065Z,75.00
2018-07-19T04:43:26.425Z,75.10
2018-07-19T04:45:54.845Z,75.20
2018-07-19T04:48:23.326Z,75.30
2018-07-19T04:50:51.709Z,75.30
2018-07-19T04:53:20.114Z,75.40
2018-07-19T04:55:48.690Z,75.60
2018-07-19T04:58:17.179Z,75.50
2018-07-19T05:00:45.629Z,75.50
2018-07-19T05:03:14.089Z,75.50
2018-07-19T05:05:42.529Z,75.60
2018-07-19T05:08:10.969Z,75.20
2018-07-19T05:10:39.502Z,75.20
2018-07-19T05:13:07.944Z,74.90
2018-07-19T05:15:36.394Z,75.70
2018-07-19T05:18:04.813Z,74.90
2018-07-19T05:20:33.922Z,66.40
2018-07-19T05:23:02.304Z,66.50
2018-07-19T05:25:30.732Z,67.70
2018-07-19T05:27:59.136Z,70.90
2018-07-19T05:30:27.634Z,72.00
2018-07-19T05:32:56.038Z,72.30
2018-07-19T05:35:24.450Z,72.60
2018-07-19T05:37:52.881Z,73.10
2018-07-19T05:40:21.375Z,74.00
2018-07-19T05:42:49.859Z,74.70
2018-07-19T05:45:18.897Z,73.20
2018-07-19T05:47:47.379Z,73.30
2018-07-19T05:50:15.845Z,73.70
2018-07-19T05:52:44.297Z,73.60
2018-07-19T05:55:12.741Z,72.80
2018-07-19T05:57:41.137Z,72.90
2018-07-19T06:02:37.798Z,72.90
2018-07-19T06:05:06.180Z,70.90
2018-07-19T06:07:34.622Z,70.20
2018-07-19T06:10:03.255Z,72.20
2018-07-19T06:12:31.809Z,69.70
2018-07-19T06:15:00.235Z,69.80
2018-07-19T06:17:29.525Z,67.80
2018-07-19T06:19:58.029Z,67.80
2018-07-19T06:22:26.470Z,67.50
2018-07-19T06:27:23.195Z,67.70
2018-07-19T06:29:51.729Z,64.80
2018-07-19T06:32:20.178Z,65.50
2018-07-19T06:34:48.677Z,64.20
2018-07-19T06:39:45.329Z,63.30
2018-07-19T06:42:13.768Z,63.90
2018-07-19T06:44:42.362Z,63.80
2018-07-19T06:47:11.643Z,63.30
2018-07-19T06:49:40.139Z,63.00
2018-07-19T06:52:08.585Z,61.90
2018-07-19T06:54:37.041Z,60.00
2018-07-19T06:57:05.601Z,59.90
2018-07-19T06:59:34.101Z,59.60
2018-07-19T07:02:02.609Z,58.90
2018-07-19T07:04:31.062Z,58.70
2018-07-19T07:06:59.521Z,58.30
2018-07-19T07:09:28.673Z,57.50
2018-07-19T07:11:57.181Z,56.60
2018-07-19T07:14:25.777Z,56.10
2018-07-19T07:16:54.188Z,56.50
2018-07-19T07:19:22.645Z,55.40
2018-07-19T07:21:51.113Z,56.90
2018-07-19T07:24:19.529Z,56.00
2018-07-19T07:26:48.000Z,55.10
2018-07-19T07:29:16.393Z,54.70
2018-07-19T07:31:44.820Z,54.90
2018-07-19T07:34:13.365Z,54.60
2018-07-19T07:36:41.683Z,54.90
2018-07-19T07:39:10.983Z,55.10
2018-07-19T07:41:39.652Z,54.60
2018-07-19T07:44:08.162Z,55.10
2018-07-19T07:46:36.581Z,54.10
2018-07-19T07:49:05.320Z,54.70
2018-07-19T07:51:33.781Z,53.70
2018-07-19T07:54:02.394Z,51.40
2018-07-19T07:56:30.814Z,52.70
2018-07-19T07:58:59.180Z,50.40
2018-07-19T08:01:27.724Z,50.30
2018-07-19T08:03:56.144Z,49.90
2018-07-19T08:06:24.588Z,50.20
2018-07-19T08:08:53.017Z,49.90
2018-07-19T08:11:21.470Z,49.20
2018-07-19T08:13:50.022Z,48.60
2018-07-19T08:16:18.513Z,47.80
2018-07-19T08:18:46.941Z,47.60
2018-07-19T08:21:15.343Z,47.10
2018-07-19T08:23:44.061Z,46.80
2018-07-19T08:26:12.538Z,46.60
2018-07-19T08:28:40.949Z,46.50
2018-07-19T08:31:09.377Z,46.50
2018-07-19T08:33:37.764Z,46.60
2018-07-19T08:36:06.164Z,45.80
2018-07-19T08:38:34.596Z,47.10
2018-07-19T08:41:03.057Z,47.10
2018-07-19T08:43:31.495Z,47.00
2018-07-19T08:45:59.919Z,47.50
2018-07-19T08:48:28.375Z,46.00
2018-07-19T08:50:56.837Z,47.10
2018-07-19T08:53:25.278Z,45.70
2018-07-19T08:55:53.757Z,45.20
2018-07-19T08:58:22.185Z,44.30
2018-07-19T09:00:50.638Z,43.60
2018-07-19T09:03:19.606Z,42.80
2018-07-19T09:05:48.066Z,43.00
2018-07-19T09:08:16.560Z,42.90
2018-07-19T09:10:44.972Z,41.60
2018-07-19T09:13:13.426Z,41.10
2018-07-19T09:15:41.935Z,40.70
2018-07-19T09:18:10.408Z,41.20
2018-07-19T09:20:38.822Z,40.20
2018-07-19T09:23:07.350Z,40.60
2018-07-19T09:25:35.873Z,41.20
2018-07-19T09:28:04.311Z,41.30
2018-07-19T09:30:32.722Z,40.80
2018-07-19T09:33:01.310Z,42.00
2018-07-19T09:35:29.907Z,41.10
2018-07-19T09:37:58.409Z,41.30
2018-07-19T09:40:27.078Z,40.50
2018-07-19T09:42:55.773Z,40.40
2018-07-19T09:45:24.446Z,38.70
2018-07-19T09:47:52.980Z,40.00
2018-07-19T09:50:21.679Z,39.00
2018-07-19T09:52:50.287Z,39.60
2018-07-19T09:55:18.817Z,40.20
2018-07-19T09:57:47.517Z,39.80
2018-07-19T10:02:48.476Z,38.90
2018-07-19T10:05:17.160Z,39.30
2018-07-19T10:07:45.978Z,39.60
2018-07-19T10:10:14.521Z,38.10
2018-07-19T10:12:43.011Z,38.00
2018-07-19T10:15:11.616Z,37.80
2018-07-19T10:17:40.161Z,38.70
2018-07-19T10:20:09.197Z,36.70
2018-07-19T10:22:37.749Z,36.70
2018-07-19T10:25:06.289Z,35.90
2018-07-19T10:27:34.828Z,38.30
2018-07-19T10:30:03.353Z,38.70
2018-07-19T10:32:31.978Z,38.30
2018-07-19T10:35:05.110Z,37.30
2018-07-19T10:37:33.721Z,36.20
2018-07-19T10:40:02.294Z,35.50
2018-07-19T10:42:30.748Z,35.90
2018-07-19T10:44:59.549Z,37.80
2018-07-19T10:47:28.072Z,37.60
2018-07-19T10:49:56.563Z,37.60
2018-07-19T10:52:25.417Z,38.80
2018-07-19T10:54:54.145Z,39.90
2018-07-19T10:57:22.670Z,38.70
2018-07-19T10:59:51.194Z,38.50
2018-07-19T11:02:19.697Z,38.70
2018-07-19T11:04:48.210Z,37.50
2018-07-19T11:07:16.974Z,36.80
2018-07-19T11:09:45.696Z,36.20
2018-07-19T11:12:14.423Z,34.50
2018-07-19T11:14:43.123Z,34.50
2018-07-19T11:17:11.938Z,33.20
2018-07-19T11:19:40.531Z,33.70
2018-07-19T11:22:09.184Z,33.10
2018-07-19T11:24:37.682Z,30.90
2018-07-19T11:27:11.041Z,31.40
2018-07-19T11:29:39.724Z,31.50
2018-07-19T11:34:36.705Z,33.60
2018-07-19T11:37:05.297Z,35.60
2018-07-19T11:39:33.931Z,33.80
2018-07-19T11:42:02.444Z,33.70
2018-07-19T11:44:30.938Z,32.70
2018-07-19T11:49:27.618Z,33.40
2018-07-19T11:51:56.149Z,32.70
2018-07-19T11:54:24.713Z,32.60
2018-07-19T11:56:53.164Z,31.20
2018-07-19T11:59:21.896Z,31.70
2018-07-19T12:01:50.517Z,31.70
2018-07-19T12:04:19.527Z,32.00
2018-07-19T12:09:16.202Z,33.20
2018-07-19T12:11:44.722Z,33.50
2018-07-19T12:14:13.247Z,33.90
2018-07-19T12:16:41.759Z,34.30
2018-07-19T12:19:10.441Z,34.80
2018-07-19T12:21:39.146Z,34.30
2018-07-19T12:24:07.794Z,34.20
2018-07-19T12:29:04.689Z,31.10
2018-07-19T12:31:33.389Z,29.80
2018-07-19T12:34:02.154Z,29.50
2018-07-19T12:36:30.863Z,30.50
2018-07-19T12:38:59.520Z,31.90
2018-07-19T12:41:28.252Z,31.00
2018-07-19T12:43:56.778Z,29.30
2018-07-19T12:46:25.317Z,28.90
2018-07-19T12:48:53.849Z,29.50
2018-07-19T12:51:22.534Z,29.80
2018-07-19T12:53:51.042Z,31.40
2018-07-19T12:56:19.554Z,30.20
2018-07-19T12:58:48.223Z,29.60
2018-07-19T13:01:17.000Z,30.60
2018-07-19T13:03:45.677Z,31.10
2018-07-19T13:06:14.310Z,32.10
2018-07-19T13:08:43.012Z,29.90
2018-07-19T13:11:11.741Z,30.40
2018-07-19T13:13:40.892Z,29.70
2018-07-19T13:16:09.845Z,30.00
2018-07-19T13:18:38.397Z,30.00
2018-07-19T13:21:06.922Z,30.00
2018-07-19T13:23:35.490Z,30.00
2018-07-19T13:26:04.102Z,29.30
2018-07-19T13:28:32.674Z,29.50
2018-07-19T13:31:01.254Z,29.80
2018-07-19T13:33:29.818Z,30.30
2018-07-19T13:35:58.510Z,30.00
2018-07-19T13:38:27.002Z,29.70
2018-07-19T13:40:55.730Z,29.00
2018-07-19T13:43:24.234Z,30.00
2018-07-19T13:45:52.993Z,29.00
2018-07-19T13:48:21.697Z,29.70
2018-07-19T13:50:51.237Z,28.50
2018-07-19T13:53:40.798Z,29.50
2018-07-19T13:58:38.711Z,29.70
2018-07-19T14:01:07.408Z,28.50
2018-07-19T14:03:36.063Z,28.70
2018-07-19T14:06:04.767Z,29.80
2018-07-19T14:08:33.445Z,28.70
2018-07-19T14:11:02.111Z,29.20
2018-07-19T14:13:30.985Z,29.70
2018-07-19T14:15:59.664Z,29.70
2018-07-19T14:18:34.783Z,29.80
2018-07-19T14:21:03.399Z,29.60
2018-07-19T14:23:32.057Z,29.30
2018-07-19T14:26:00.750Z,31.50
2018-07-19T14:28:29.411Z,30.90
2018-07-19T14:30:58.053Z,30.10
2018-07-19T14:33:26.737Z,30.90
2018-07-19T14:35:55.395Z,31.80
2018-07-19T14:38:24.080Z,30.50
2018-07-19T14:40:52.813Z,31.80
2018-07-19T14:43:21.495Z,30.40
2018-07-19T14:45:50.129Z,31.10
2018-07-19T14:48:18.821Z,31.70
2018-07-19T14:50:47.587Z,31.40
2018-07-19T14:53:16.252Z,30.10
2018-07-19T14:55:44.937Z,31.20
2018-07-19T14:58:13.569Z,31.80
2018-07-19T15:00:42.174Z,31.60
2018-07-19T15:03:10.959Z,32.10
2018-07-19T15:05:39.581Z,31.60
2018-07-19T15:08:08.266Z,32.30
2018-07-19T15:10:37.527Z,32.30
2018-07-19T15:13:06.212Z,33.10
2018-07-19T15:15:34.893Z,33.10
2018-07-19T15:18:03.578Z,33.30
2018-07-19T15:20:32.619Z,32.80
2018-07-19T15:23:01.268Z,33.40
2018-07-19T15:25:29.961Z,33.30
2018-07-19T15:27:58.626Z,34.00
2018-07-19T15:30:27.243Z,33.80
2018-07-19T15:32:55.877Z,33.20
2018-07-19T15:35:24.619Z,32.80
2018-07-19T15:37:53.305Z,33.80
2018-07-19T15:40:21.919Z,34.00
2018-07-19T15:42:50.545Z,34.00
2018-07-19T15:45:19.783Z,33.90
2018-07-19T15:47:49.017Z,34.50
2018-07-19T15:50:18.213Z,33.80
2018-07-19T15:52:46.905Z,34.00
2018-07-19T15:55:15.664Z,33.40
2018-07-19T15:57:44.338Z,35.10
2018-07-19T16:00:13.054Z,34.30
2018-07-19T16:02:41.678Z,34.10
2018-07-19T16:05:10.329Z,35.00
2018-07-19T16:07:39.045Z,35.20
2018-07-19T16:10:07.801Z,34.60
2018-07-19T16:12:36.450Z,34.80
2018-07-19T16:15:05.803Z,34.70
2018-07-19T16:17:34.626Z,34.70
2018-07-19T16:20:03.346Z,34.00
2018-07-19T16:22:31.982Z,34.50
2018-07-19T16:25:00.609Z,34.00
2018-07-19T16:27:29.410Z,33.70
2018-07-19T16:29:58.074Z,34.40
2018-07-19T16:32:27.099Z,34.00
2018-07-19T16:34:55.677Z,34.60
2018-07-19T16:37:24.359Z,34.50
2018-07-19T16:39:53.081Z,35.30
2018-07-19T16:42:21.841Z,35.10
2018-07-19T16:44:50.507Z,35.20
2018-07-19T16:47:19.164Z,36.10
2018-07-19T16:49:48.023Z,35.90
2018-07-19T16:52:16.742Z,35.90
2018-07-19T16:54:45.443Z,35.70
2018-07-19T16:59:42.450Z,35.80
2018-07-19T17:02:11.507Z,36.10
2018-07-19T17:07:08.376Z,36.00
2018-07-19T17:09:36.827Z,36.40
2018-07-19T17:12:05.385Z,36.30
2018-07-19T17:14:33.744Z,36.20
2018-07-19T17:17:02.138Z,37.00
2018-07-19T17:19:30.541Z,37.00
2018-07-19T17:21:59.121Z,37.10
2018-07-19T17:24:27.605Z,37.40
2018-07-19T17:26:55.992Z,36.90
2018-07-19T17:29:24.424Z,37.00
2018-07-19T17:31:52.845Z,37.90
2018-07-19T17:34:21.340Z,37.80
2018-07-19T17:36:49.743Z,38.70
2018-07-19T17:41:46.296Z,37.70
2018-07-19T17:44:14.765Z,38.00
2018-07-19T17:46:43.163Z,37.80
2018-07-19T17:49:11.576Z,38.10
2018-07-19T17:51:40.039Z,38.60
2018-07-19T17:56:36.593Z,38.30
2018-07-19T17:59:05.079Z,38.90
2018-07-19T18:01:33.689Z,39.30
2018-07-19T18:04:03.063Z,39.30
2018-07-19T18:06:32.344Z,38.60
2018-07-19T18:09:00.773Z,39.10
2018-07-19T18:11:29.294Z,39.00
2018-07-19T18:13:57.667Z,39.50
2018-07-19T18:16:26.160Z,38.70
2018-07-19T18:18:54.697Z,37.80
2018-07-19T18:21:25.293Z,36.00
2018-07-19T18:23:53.886Z,35.90
2018-07-19T18:26:22.304Z,35.40
2018-07-19T18:28:50.712Z,35.00
2018-07-19T18:31:19.330Z,35.30
2018-07-19T18:36:16.155Z,34.90
2018-07-19T18:38:44.546Z,34.90
2018-07-19T18:41:12.966Z,35.00
2018-07-19T18:43:41.341Z,34.70
2018-07-19T18:46:09.993Z,34.40
2018-07-19T18:48:38.401Z,34.40
2018-07-19T18:51:06.788Z,35.40
2018-07-19T18:53:35.267Z,35.40
2018-07-19T18:56:03.758Z,36.10
2018-07-19T19:01:00.488Z,35.80
2018-07-19T19:03:28.886Z,35.60
2018-07-19T19:08:25.413Z,36.30
2018-07-19T19:10:53.873Z,35.80
2018-07-19T19:13:22.296Z,36.10
2018-07-19T19:15:50.797Z,36.20
2018-07-19T19:20:47.377Z,37.60
2018-07-19T19:23:15.897Z,38.70
2018-07-19T19:25:44.312Z,38.80
2018-07-19T19:28:12.775Z,39.00
2018-07-19T19:30:41.313Z,43.20
2018-07-19T19:33:09.816Z,42.30
2018-07-19T19:35:38.209Z,40.60
2018-07-19T19:38:06.720Z,44.50
2018-07-19T19:40:35.243Z,45.30
2018-07-19T19:43:03.716Z,46.10
2018-07-19T19:45:32.206Z,39.30
2018-07-19T19:48:00.605Z,39.00
2018-07-19T19:50:29.030Z,38.30
2018-07-19T19:52:57.439Z,39.50
2018-07-19T19:55:25.858Z,40.10
2018-07-19T19:57:54.274Z,38.40
2018-07-19T20:00:22.672Z,40.00
2018-07-19T20:02:51.044Z,39.70
2018-07-19T20:05:19.425Z,39.40
2018-07-19T20:07:48.293Z,39.90
2018-07-19T20:10:17.473Z,40.50
2018-07-19T20:12:45.878Z,39.70
2018-07-19T20:15:15.041Z,39.60
2018-07-19T20:17:44.859Z,39.30
2018-07-19T20:20:14.000Z,39.20
2018-07-19T20:22:42.774Z,39.50
2018-07-19T20:25:11.373Z,39.40
2018-07-19T20:27:39.805Z,40.20
2018-07-19T20:30:08.365Z,39.60
2018-07-19T20:35:05.873Z,39.30
2018-07-19T20:37:34.349Z,39.40
2018-07-19T20:40:02.808Z,39.30
2018-07-19T20:42:31.209Z,39.40
2018-07-19T20:44:59.582Z,39.50
2018-07-19T20:47:27.981Z,40.00
2018-07-19T20:49:56.399Z,39.50
2018-07-19T20:52:24.785Z,39.80
2018-07-19T20:54:53.153Z,41.10
2018-07-19T20:57:21.628Z,42.10
2018-07-19T20:59:50.058Z,42.30
2018-07-19T21:02:18.666Z,42.20
2018-07-19T21:04:47.155Z,42.10
2018-07-19T21:07:15.547Z,42.40
2018-07-19T21:09:43.994Z,42.70
2018-07-19T21:12:12.412Z,42.00
2018-07-19T21:14:40.817Z,42.70
2018-07-19T21:17:10.023Z,42.10
2018-07-19T21:19:38.460Z,42.60
2018-07-19T21:22:07.065Z,42.60
2018-07-19T21:24:35.473Z,42.60
2018-07-19T21:29:32.171Z,43.10
2018-07-19T21:32:00.589Z,43.90
2018-07-19T21:34:28.993Z,43.70
2018-07-19T21:36:57.449Z,44.20
2018-07-19T21:39:25.829Z,44.60
2018-07-19T21:41:54.310Z,46.20
2018-07-19T21:44:22.742Z,47.00
2018-07-19T21:46:51.121Z,47.00
2018-07-19T21:49:19.511Z,47.80
2018-07-19T21:51:47.917Z,48.80
2018-07-19T21:54:16.346Z,49.30
2018-07-19T21:56:44.785Z,49.10
2018-07-19T21:59:13.169Z,50.00
2018-07-19T22:01:45.079Z,51.00
2018-07-19T22:04:14.678Z,51.00
2018-07-19T22:06:43.350Z,51.70
2018-07-19T22:09:12.991Z,52.20
2018-07-19T22:11:42.122Z,52.50
2018-07-19T22:14:11.364Z,52.70
2018-07-19T22:16:40.553Z,53.00
2018-07-19T22:19:08.995Z,54.00
2018-07-19T22:21:37.406Z,53.70
2018-07-19T22:24:05.855Z,54.30
2018-07-19T22:26:34.276Z,54.30
2018-07-19T22:29:02.658Z,54.80
2018-07-19T22:31:31.054Z,54.90
2018-07-19T22:33:59.579Z,55.30
2018-07-19T22:36:27.978Z,55.40
2018-07-19T22:38:56.414Z,55.50
2018-07-19T22:41:24.808Z,55.90
2018-07-19T22:43:53.222Z,55.80
2018-07-19T22:46:21.593Z,56.40
2018-07-19T22:48:50.092Z,56.80
2018-07-19T22:51:18.529Z,56.70
2018-07-19T22:53:46.884Z,57.50
2018-07-19T22:56:15.298Z,56.80
2018-07-19T22:58:43.734Z,57.20
2018-07-19T23:01:12.153Z,57.30
2018-07-19T23:03:40.529Z,57.80
2018-07-19T23:06:09.025Z,57.70
2018-07-19T23:08:37.453Z,58.20
2018-07-19T23:11:05.855Z,58.20
2018-07-19T23:13:34.302Z,58.20
2018-07-19T23:16:02.721Z,58.60
2018-07-19T23:18:31.445Z,58.70
2018-07-19T23:20:59.893Z,59.50
2018-07-19T23:23:28.240Z,59.30
2018-07-19T23:25:56.637Z,60.10
2018-07-19T23:28:25.056Z,59.50
2018-07-19T23:30:53.473Z,59.80
2018-07-19T23:33:21.892Z,60.90
2018-07-19T23:35:55.247Z,60.00
2018-07-19T23:38:30.858Z,60.50
2018-07-19T23:41:00.865Z,60.70
2018-07-19T23:43:33.483Z,61.00
2018-07-19T23:46:18.927Z,61.30
2018-07-19T23:48:47.633Z,62.10
2018-07-19T23:51:16.009Z,62.30
2018-07-19T23:53:44.511Z,62.70
2018-07-19T23:56:12.877Z,62.90
2018-07-19T23:58:41.302Z,63.10
